sensor_id;sensor_type;location;lat;lon;timestamp;temperature;humidity
40253;DHT22;25972;51.854;4.534;2024-03-02T00:00:08;6.60;99.90
40253;DHT22;25972;51.854;4.534;2024-03-02T00:02:45;6.70;99.90
40253;DHT22;25972;51.854;4.534;2024-03-02T00:05:15;6.70;99.90
40253;DHT22;25972;51.854;4.534;2024-03-02T00:07:43;6.70;99.90
40253;DHT22;25972;51.854;4.534;2024-03-02T00:10:11;6.60;99.90
40253;DHT22;25972;51.854;4.534;2024-03-02T00:12:37;6.60;99.90
40253;DHT22;25972;51.854;4.534;2024-03-02T00:17:53;6.60;99.90
40253;DHT22;25972;51.854;4.534;2024-03-02T00:20:21;6.60;99.90
40253;DHT22;25972;51.854;4.534;2024-03-02T00:22:47;6.60;99.90
40253;DHT22;25972;51.854;4.534;2024-03-02T00:25:13;6.60;99.90
40253;DHT22;25972;51.854;4.534;2024-03-02T00:27:38;6.60;99.90
40253;DHT22;25972;51.854;4.534;2024-03-02T00:32:53;6.50;99.90
40253;DHT22;25972;51.854;4.534;2024-03-02T00:35:20;6.50;99.90
40253;DHT22;25972;51.854;4.534;2024-03-02T00:37:47;6.50;99.90
40253;DHT22;25972;51.854;4.534;2024-03-02T00:40:13;6.50;99.90
40253;DHT22;25972;51.854;4.534;2024-03-02T00:42:40;6.50;99.90
40253;DHT22;25972;51.854;4.534;2024-03-02T00:45:10;6.50;99.90
40253;DHT22;25972;51.854;4.534;2024-03-02T00:47:39;6.50;99.90
40253;DHT22;25972;51.854;4.534;2024-03-02T00:50:05;6.50;99.90
40253;DHT22;25972;51.854;4.534;2024-03-02T00:52:32;6.50;99.90
40253;DHT22;25972;51.854;4.534;2024-03-02T00:54:58;6.40;99.90
40253;DHT22;25972;51.854;4.534;2024-03-02T00:57:24;6.40;99.90
40253;DHT22;25972;51.854;4.534;2024-03-02T00:59:51;6.40;99.90
40253;DHT22;25972;51.854;4.534;2024-03-02T01:02:17;6.40;99.90
40253;DHT22;25972;51.854;4.534;2024-03-02T01:04:45;6.40;99.90
40253;DHT22;25972;51.854;4.534;2024-03-02T01:07:11;6.40;99.90
40253;DHT22;25972;51.854;4.534;2024-03-02T01:09:36;6.40;99.90
40253;DHT22;25972;51.854;4.534;2024-03-02T01:12:02;6.40;99.90
40253;DHT22;25972;51.854;4.534;2024-03-02T01:14:28;6.40;99.90
40253;DHT22;25972;51.854;4.534;2024-03-02T01:16:54;6.40;99.90
40253;DHT22;25972;51.854;4.534;2024-03-02T01:19:20;6.40;99.90
40253;DHT22;25972;51.854;4.534;2024-03-02T01:21:46;6.40;99.90
40253;DHT22;25972;51.854;4.534;2024-03-02T01:24:12;6.40;99.90
40253;DHT22;25972;51.854;4.534;2024-03-02T01:26:38;6.40;99.90
40253;DHT22;25972;51.854;4.534;2024-03-02T01:29:04;6.40;99.90
40253;DHT22;25972;51.854;4.534;2024-03-02T01:31:30;6.40;99.90
40253;DHT22;25972;51.854;4.534;2024-03-02T01:33:55;6.40;99.90
40253;DHT22;25972;51.854;4.534;2024-03-02T01:36:21;6.40;99.90
40253;DHT22;25972;51.854;4.534;2024-03-02T01:38:47;6.40;99.90
40253;DHT22;25972;51.854;4.534;2024-03-02T01:41:13;6.40;99.90
40253;DHT22;25972;51.854;4.534;2024-03-02T01:43:39;6.40;99.90
40253;DHT22;25972;51.854;4.534;2024-03-02T01:46:04;6.40;99.90
40253;DHT22;25972;51.854;4.534;2024-03-02T01:48:30;6.40;99.90
40253;DHT22;25972;51.854;4.534;2024-03-02T01:50:56;6.40;99.90
40253;DHT22;25972;51.854;4.534;2024-03-02T01:53:21;6.40;99.90
40253;DHT22;25972;51.854;4.534;2024-03-02T01:55:47;6.40;99.90
40253;DHT22;25972;51.854;4.534;2024-03-02T01:58:13;6.40;99.90
40253;DHT22;25972;51.854;4.534;2024-03-02T02:00:39;6.40;99.90
40253;DHT22;25972;51.854;4.534;2024-03-02T02:03:05;6.50;99.90
40253;DHT22;25972;51.854;4.534;2024-03-02T02:05:32;6.50;99.90
40253;DHT22;25972;51.854;4.534;2024-03-02T02:07:58;6.50;99.90
40253;DHT22;25972;51.854;4.534;2024-03-02T02:10:24;6.50;99.90
40253;DHT22;25972;51.854;4.534;2024-03-02T02:12:50;6.50;99.90
40253;DHT22;25972;51.854;4.534;2024-03-02T02:15:29;6.50;99.90
40253;DHT22;25972;51.854;4.534;2024-03-02T02:17:55;6.50;99.90
40253;DHT22;25972;51.854;4.534;2024-03-02T02:20:21;6.50;99.90
40253;DHT22;25972;51.854;4.534;2024-03-02T02:25:23;6.50;99.90
40253;DHT22;25972;51.854;4.534;2024-03-02T02:27:48;6.50;99.90
40253;DHT22;25972;51.854;4.534;2024-03-02T02:30:19;6.50;99.90
40253;DHT22;25972;51.854;4.534;2024-03-02T02:32:45;6.50;99.90
40253;DHT22;25972;51.854;4.534;2024-03-02T02:35:10;6.50;99.90
40253;DHT22;25972;51.854;4.534;2024-03-02T02:37:36;6.50;99.90
40253;DHT22;25972;51.854;4.534;2024-03-02T02:40:02;6.50;99.90
40253;DHT22;25972;51.854;4.534;2024-03-02T02:42:30;6.40;99.90
40253;DHT22;25972;51.854;4.534;2024-03-02T02:44:56;6.50;99.90
40253;DHT22;25972;51.854;4.534;2024-03-02T02:47:22;6.40;99.90
40253;DHT22;25972;51.854;4.534;2024-03-02T02:49:47;6.50;99.90
40253;DHT22;25972;51.854;4.534;2024-03-02T02:52:13;6.50;99.90
40253;DHT22;25972;51.854;4.534;2024-03-02T02:54:38;6.50;99.90
40253;DHT22;25972;51.854;4.534;2024-03-02T02:57:04;6.50;99.90
40253;DHT22;25972;51.854;4.534;2024-03-02T02:59:30;6.40;99.90
40253;DHT22;25972;51.854;4.534;2024-03-02T03:01:56;6.50;99.90
40253;DHT22;25972;51.854;4.534;2024-03-02T03:04:21;6.50;99.90
40253;DHT22;25972;51.854;4.534;2024-03-02T03:06:47;6.50;99.90
40253;DHT22;25972;51.854;4.534;2024-03-02T03:09:13;6.50;99.90
40253;DHT22;25972;51.854;4.534;2024-03-02T03:11:38;6.50;99.90
40253;DHT22;25972;51.854;4.534;2024-03-02T03:14:04;6.50;99.90
40253;DHT22;25972;51.854;4.534;2024-03-02T03:16:30;6.50;99.90
40253;DHT22;25972;51.854;4.534;2024-03-02T03:18:56;6.50;99.90
40253;DHT22;25972;51.854;4.534;2024-03-02T03:21:21;6.50;99.90
40253;DHT22;25972;51.854;4.534;2024-03-02T03:23:47;6.50;99.90
40253;DHT22;25972;51.854;4.534;2024-03-02T03:26:13;6.50;99.90
40253;DHT22;25972;51.854;4.534;2024-03-02T03:28:39;6.50;99.90
40253;DHT22;25972;51.854;4.534;2024-03-02T03:31:04;6.50;99.90
40253;DHT22;25972;51.854;4.534;2024-03-02T03:33:30;6.40;99.90
40253;DHT22;25972;51.854;4.534;2024-03-02T03:35:56;6.40;99.90
40253;DHT22;25972;51.854;4.534;2024-03-02T03:38:21;6.40;99.90
40253;DHT22;25972;51.854;4.534;2024-03-02T03:40:47;6.40;99.90
40253;DHT22;25972;51.854;4.534;2024-03-02T03:43:13;6.30;99.90
40253;DHT22;25972;51.854;4.534;2024-03-02T03:45:38;6.30;99.90
40253;DHT22;25972;51.854;4.534;2024-03-02T03:48:04;6.20;99.90
40253;DHT22;25972;51.854;4.534;2024-03-02T03:50:30;6.20;99.90
40253;DHT22;25972;51.854;4.534;2024-03-02T03:52:56;6.20;99.90
40253;DHT22;25972;51.854;4.534;2024-03-02T03:55:22;6.20;99.90
40253;DHT22;25972;51.854;4.534;2024-03-02T03:57:47;6.20;99.90
40253;DHT22;25972;51.854;4.534;2024-03-02T04:00:13;6.20;99.90
40253;DHT22;25972;51.854;4.534;2024-03-02T04:02:39;6.20;99.90
40253;DHT22;25972;51.854;4.534;2024-03-02T04:05:05;6.20;99.90
40253;DHT22;25972;51.854;4.534;2024-03-02T04:07:35;6.20;99.90
40253;DHT22;25972;51.854;4.534;2024-03-02T04:10:09;6.20;99.90
40253;DHT22;25972;51.854;4.534;2024-03-02T04:12:39;6.20;99.90
40253;DHT22;25972;51.854;4.534;2024-03-02T04:15:05;6.20;99.90
40253;DHT22;25972;51.854;4.534;2024-03-02T04:17:32;6.10;99.90
40253;DHT22;25972;51.854;4.534;2024-03-02T04:19:59;6.20;99.90
40253;DHT22;25972;51.854;4.534;2024-03-02T04:22:26;6.20;99.90
40253;DHT22;25972;51.854;4.534;2024-03-02T04:24:52;6.20;99.90
40253;DHT22;25972;51.854;4.534;2024-03-02T04:27:18;6.20;99.90
40253;DHT22;25972;51.854;4.534;2024-03-02T04:29:44;6.20;99.90
40253;DHT22;25972;51.854;4.534;2024-03-02T04:32:09;6.10;99.90
40253;DHT22;25972;51.854;4.534;2024-03-02T04:34:35;6.10;99.90
40253;DHT22;25972;51.854;4.534;2024-03-02T04:37:01;6.20;99.90
40253;DHT22;25972;51.854;4.534;2024-03-02T04:39:26;6.10;99.90
40253;DHT22;25972;51.854;4.534;2024-03-02T04:41:52;6.10;99.90
40253;DHT22;25972;51.854;4.534;2024-03-02T04:44:18;6.10;99.90
40253;DHT22;25972;51.854;4.534;2024-03-02T04:46:44;6.10;99.90
40253;DHT22;25972;51.854;4.534;2024-03-02T04:49:10;6.00;99.90
40253;DHT22;25972;51.854;4.534;2024-03-02T04:51:36;6.00;99.90
40253;DHT22;25972;51.854;4.534;2024-03-02T04:54:02;6.00;99.90
40253;DHT22;25972;51.854;4.534;2024-03-02T04:56:27;5.90;99.90
40253;DHT22;25972;51.854;4.534;2024-03-02T04:59:05;5.90;99.90
40253;DHT22;25972;51.854;4.534;2024-03-02T05:01:31;5.80;99.90
40253;DHT22;25972;51.854;4.534;2024-03-02T05:03:58;5.80;99.90
40253;DHT22;25972;51.854;4.534;2024-03-02T05:06:24;5.70;99.90
40253;DHT22;25972;51.854;4.534;2024-03-02T05:08:49;5.70;99.90
40253;DHT22;25972;51.854;4.534;2024-03-02T05:11:15;5.70;99.90
40253;DHT22;25972;51.854;4.534;2024-03-02T05:13:59;5.70;99.90
40253;DHT22;25972;51.854;4.534;2024-03-02T05:16:25;5.70;99.90
40253;DHT22;25972;51.854;4.534;2024-03-02T05:18:51;5.70;99.90
40253;DHT22;25972;51.854;4.534;2024-03-02T05:21:16;5.70;99.90
40253;DHT22;25972;51.854;4.534;2024-03-02T05:23:42;5.70;99.90
40253;DHT22;25972;51.854;4.534;2024-03-02T05:26:08;5.80;99.90
40253;DHT22;25972;51.854;4.534;2024-03-02T05:28:36;5.80;99.90
40253;DHT22;25972;51.854;4.534;2024-03-02T05:31:02;6.00;99.90
40253;DHT22;25972;51.854;4.534;2024-03-02T05:33:28;5.90;99.90
40253;DHT22;25972;51.854;4.534;2024-03-02T05:35:55;6.00;99.90
40253;DHT22;25972;51.854;4.534;2024-03-02T05:38:21;6.00;99.90
40253;DHT22;25972;51.854;4.534;2024-03-02T05:40:47;6.00;99.90
40253;DHT22;25972;51.854;4.534;2024-03-02T05:43:12;6.10;99.90
40253;DHT22;25972;51.854;4.534;2024-03-02T05:45:38;6.00;99.90
40253;DHT22;25972;51.854;4.534;2024-03-02T05:48:08;6.10;99.90
40253;DHT22;25972;51.854;4.534;2024-03-02T05:50:35;6.10;99.90
40253;DHT22;25972;51.854;4.534;2024-03-02T05:53:00;6.10;99.90
40253;DHT22;25972;51.854;4.534;2024-03-02T05:55:26;6.10;99.90
40253;DHT22;25972;51.854;4.534;2024-03-02T05:57:52;6.10;99.90
40253;DHT22;25972;51.854;4.534;2024-03-02T06:00:23;6.10;99.90
40253;DHT22;25972;51.854;4.534;2024-03-02T06:02:49;6.00;99.90
40253;DHT22;25972;51.854;4.534;2024-03-02T06:05:15;6.00;99.90
40253;DHT22;25972;51.854;4.534;2024-03-02T06:07:42;6.00;99.90
40253;DHT22;25972;51.854;4.534;2024-03-02T06:10:09;6.00;99.90
40253;DHT22;25972;51.854;4.534;2024-03-02T06:12:34;6.00;99.90
40253;DHT22;25972;51.854;4.534;2024-03-02T06:15:00;6.00;99.90
40253;DHT22;25972;51.854;4.534;2024-03-02T06:17:26;6.00;99.90
40253;DHT22;25972;51.854;4.534;2024-03-02T06:19:51;6.00;99.90
40253;DHT22;25972;51.854;4.534;2024-03-02T06:22:17;6.00;99.90
40253;DHT22;25972;51.854;4.534;2024-03-02T06:24:44;6.00;99.90
40253;DHT22;25972;51.854;4.534;2024-03-02T06:27:10;5.90;99.90
40253;DHT22;25972;51.854;4.534;2024-03-02T06:29:35;6.00;99.90
40253;DHT22;25972;51.854;4.534;2024-03-02T06:32:01;6.00;99.90
40253;DHT22;25972;51.854;4.534;2024-03-02T06:34:27;5.90;99.90
40253;DHT22;25972;51.854;4.534;2024-03-02T06:36:52;5.90;99.90
40253;DHT22;25972;51.854;4.534;2024-03-02T06:39:18;5.90;99.90
40253;DHT22;25972;51.854;4.534;2024-03-02T06:41:44;5.90;99.90
40253;DHT22;25972;51.854;4.534;2024-03-02T06:44:12;5.90;99.90
40253;DHT22;25972;51.854;4.534;2024-03-02T06:46:38;5.80;99.90
40253;DHT22;25972;51.854;4.534;2024-03-02T06:49:04;5.70;99.90
40253;DHT22;25972;51.854;4.534;2024-03-02T06:51:30;5.70;99.90
40253;DHT22;25972;51.854;4.534;2024-03-02T06:53:56;5.70;99.90
40253;DHT22;25972;51.854;4.534;2024-03-02T06:56:22;5.70;99.90
40253;DHT22;25972;51.854;4.534;2024-03-02T06:58:47;5.70;99.90
40253;DHT22;25972;51.854;4.534;2024-03-02T07:01:13;5.60;99.90
40253;DHT22;25972;51.854;4.534;2024-03-02T07:03:39;5.60;99.90
40253;DHT22;25972;51.854;4.534;2024-03-02T07:06:05;5.60;99.90
40253;DHT22;25972;51.854;4.534;2024-03-02T07:08:31;5.60;99.90
40253;DHT22;25972;51.854;4.534;2024-03-02T07:10:56;5.60;99.90
40253;DHT22;25972;51.854;4.534;2024-03-02T07:13:22;5.60;99.90
40253;DHT22;25972;51.854;4.534;2024-03-02T07:15:48;5.60;99.90
40253;DHT22;25972;51.854;4.534;2024-03-02T07:18:40;5.60;99.90
40253;DHT22;25972;51.854;4.534;2024-03-02T07:21:10;5.60;99.90
40253;DHT22;25972;51.854;4.534;2024-03-02T07:23:36;5.60;99.90
40253;DHT22;25972;51.854;4.534;2024-03-02T07:26:02;5.60;99.90
40253;DHT22;25972;51.854;4.534;2024-03-02T07:28:28;5.60;99.90
40253;DHT22;25972;51.854;4.534;2024-03-02T07:31:03;5.60;99.90
40253;DHT22;25972;51.854;4.534;2024-03-02T07:33:30;5.70;99.90
40253;DHT22;25972;51.854;4.534;2024-03-02T07:35:56;5.80;99.90
40253;DHT22;25972;51.854;4.534;2024-03-02T07:38:23;5.80;99.90
40253;DHT22;25972;51.854;4.534;2024-03-02T07:40:49;5.90;99.90
40253;DHT22;25972;51.854;4.534;2024-03-02T07:43:21;6.00;99.90
40253;DHT22;25972;51.854;4.534;2024-03-02T07:45:48;6.10;99.90
40253;DHT22;25972;51.854;4.534;2024-03-02T07:48:14;6.20;99.90
40253;DHT22;25972;51.854;4.534;2024-03-02T07:50:40;6.30;99.90
40253;DHT22;25972;51.854;4.534;2024-03-02T07:53:06;6.40;99.90
40253;DHT22;25972;51.854;4.534;2024-03-02T07:55:34;6.60;99.90
40253;DHT22;25972;51.854;4.534;2024-03-02T07:58:01;6.70;99.90
40253;DHT22;25972;51.854;4.534;2024-03-02T08:00:26;6.80;99.90
40253;DHT22;25972;51.854;4.534;2024-03-02T08:02:53;6.90;99.90
40253;DHT22;25972;51.854;4.534;2024-03-02T08:05:19;7.00;99.90
40253;DHT22;25972;51.854;4.534;2024-03-02T08:07:45;7.10;99.90
40253;DHT22;25972;51.854;4.534;2024-03-02T08:10:12;7.30;99.90
40253;DHT22;25972;51.854;4.534;2024-03-02T08:12:38;7.40;99.90
40253;DHT22;25972;51.854;4.534;2024-03-02T08:15:04;7.50;99.90
40253;DHT22;25972;51.854;4.534;2024-03-02T08:17:30;7.60;99.90
40253;DHT22;25972;51.854;4.534;2024-03-02T08:19:56;7.70;99.90
40253;DHT22;25972;51.854;4.534;2024-03-02T08:22:22;7.70;99.90
40253;DHT22;25972;51.854;4.534;2024-03-02T08:24:48;7.90;99.90
40253;DHT22;25972;51.854;4.534;2024-03-02T08:27:14;7.90;99.90
40253;DHT22;25972;51.854;4.534;2024-03-02T08:29:40;8.00;99.90
40253;DHT22;25972;51.854;4.534;2024-03-02T08:32:06;8.20;99.90
40253;DHT22;25972;51.854;4.534;2024-03-02T08:34:33;8.40;99.90
40253;DHT22;25972;51.854;4.534;2024-03-02T08:37:01;8.50;99.90
40253;DHT22;25972;51.854;4.534;2024-03-02T08:39:27;8.60;99.90
40253;DHT22;25972;51.854;4.534;2024-03-02T08:41:53;8.70;99.90
40253;DHT22;25972;51.854;4.534;2024-03-02T08:44:20;8.80;99.90
40253;DHT22;25972;51.854;4.534;2024-03-02T08:46:45;8.90;99.90
40253;DHT22;25972;51.854;4.534;2024-03-02T08:49:12;8.90;99.90
40253;DHT22;25972;51.854;4.534;2024-03-02T08:51:38;9.00;99.90
40253;DHT22;25972;51.854;4.534;2024-03-02T08:54:03;9.10;99.90
40253;DHT22;25972;51.854;4.534;2024-03-02T08:56:30;9.10;99.90
40253;DHT22;25972;51.854;4.534;2024-03-02T08:58:56;9.20;99.90
40253;DHT22;25972;51.854;4.534;2024-03-02T09:01:22;9.30;99.90
40253;DHT22;25972;51.854;4.534;2024-03-02T09:03:48;9.40;99.90
40253;DHT22;25972;51.854;4.534;2024-03-02T09:06:14;9.60;99.90
40253;DHT22;25972;51.854;4.534;2024-03-02T09:08:42;9.50;93.90
40253;DHT22;25972;51.854;4.534;2024-03-02T09:11:10;9.50;61.90
40253;DHT22;25972;51.854;4.534;2024-03-02T09:13:36;9.70;60.70
40253;DHT22;25972;51.854;4.534;2024-03-02T09:16:02;9.70;25.00
40253;DHT22;25972;51.854;4.534;2024-03-02T09:18:29;9.80;11.80
40253;DHT22;25972;51.854;4.534;2024-03-02T09:20:55;9.90;13.80
40253;DHT22;25972;51.854;4.534;2024-03-02T09:23:21;10.10;10.30
40253;DHT22;25972;51.854;4.534;2024-03-02T09:25:46;10.20;4.10
40253;DHT22;25972;51.854;4.534;2024-03-02T09:28:12;10.40;1.00
40253;DHT22;25972;51.854;4.534;2024-03-02T09:30:39;10.50;1.00
40253;DHT22;25972;51.854;4.534;2024-03-02T09:33:05;10.60;1.00
40253;DHT22;25972;51.854;4.534;2024-03-02T09:35:30;10.70;1.00
40253;DHT22;25972;51.854;4.534;2024-03-02T09:37:56;10.70;1.00
40253;DHT22;25972;51.854;4.534;2024-03-02T09:40:22;10.80;1.00
40253;DHT22;25972;51.854;4.534;2024-03-02T09:42:49;10.80;1.00
40253;DHT22;25972;51.854;4.534;2024-03-02T09:45:26;11.10;1.00
40253;DHT22;25972;51.854;4.534;2024-03-02T09:47:52;11.00;1.00
40253;DHT22;25972;51.854;4.534;2024-03-02T09:50:18;11.00;1.00
40253;DHT22;25972;51.854;4.534;2024-03-02T09:52:44;11.00;1.00
40253;DHT22;25972;51.854;4.534;2024-03-02T09:55:13;10.90;1.00
40253;DHT22;25972;51.854;4.534;2024-03-02T09:57:39;11.00;1.00
40253;DHT22;25972;51.854;4.534;2024-03-02T10:00:08;10.90;1.00
40253;DHT22;25972;51.854;4.534;2024-03-02T10:02:33;10.80;1.00
40253;DHT22;25972;51.854;4.534;2024-03-02T10:04:59;10.70;1.00
40253;DHT22;25972;51.854;4.534;2024-03-02T10:07:25;10.60;1.00
40253;DHT22;25972;51.854;4.534;2024-03-02T10:09:50;10.70;1.00
40253;DHT22;25972;51.854;4.534;2024-03-02T10:12:18;10.70;1.00
40253;DHT22;25972;51.854;4.534;2024-03-02T10:14:44;10.60;1.00
40253;DHT22;25972;51.854;4.534;2024-03-02T10:17:11;10.80;1.00
40253;DHT22;25972;51.854;4.534;2024-03-02T10:19:37;10.60;1.00
40253;DHT22;25972;51.854;4.534;2024-03-02T10:22:05;10.60;1.00
40253;DHT22;25972;51.854;4.534;2024-03-02T10:24:44;10.60;1.00
40253;DHT22;25972;51.854;4.534;2024-03-02T10:27:18;10.60;1.00
40253;DHT22;25972;51.854;4.534;2024-03-02T10:29:48;10.70;1.00
40253;DHT22;25972;51.854;4.534;2024-03-02T10:32:15;10.60;1.00
40253;DHT22;25972;51.854;4.534;2024-03-02T10:34:43;10.70;1.00
40253;DHT22;25972;51.854;4.534;2024-03-02T10:37:11;10.70;1.00
40253;DHT22;25972;51.854;4.534;2024-03-02T10:39:37;10.60;1.00
40253;DHT22;25972;51.854;4.534;2024-03-02T10:42:05;10.70;1.00
40253;DHT22;25972;51.854;4.534;2024-03-02T10:44:32;10.50;1.00
40253;DHT22;25972;51.854;4.534;2024-03-02T10:47:00;10.60;1.00
40253;DHT22;25972;51.854;4.534;2024-03-02T10:49:29;10.70;1.00
40253;DHT22;25972;51.854;4.534;2024-03-02T10:51:55;10.60;1.00
40253;DHT22;25972;51.854;4.534;2024-03-02T10:54:21;10.60;1.00
40253;DHT22;25972;51.854;4.534;2024-03-02T10:56:53;10.60;1.00
40253;DHT22;25972;51.854;4.534;2024-03-02T10:59:36;10.60;1.00
40253;DHT22;25972;51.854;4.534;2024-03-02T11:02:04;10.70;1.00
40253;DHT22;25972;51.854;4.534;2024-03-02T11:04:32;10.60;1.00
40253;DHT22;25972;51.854;4.534;2024-03-02T11:07:04;10.60;1.00
40253;DHT22;25972;51.854;4.534;2024-03-02T11:09:33;10.60;1.00
40253;DHT22;25972;51.854;4.534;2024-03-02T11:12:48;10.60;1.00
40253;DHT22;25972;51.854;4.534;2024-03-02T11:15:07;10.70;1.00
40253;DHT22;25972;51.854;4.534;2024-03-02T11:17:35;10.80;1.00
40253;DHT22;25972;51.854;4.534;2024-03-02T11:20:03;10.80;1.00
40253;DHT22;25972;51.854;4.534;2024-03-02T11:22:29;10.80;1.00
40253;DHT22;25972;51.854;4.534;2024-03-02T11:24:55;10.90;1.00
40253;DHT22;25972;51.854;4.534;2024-03-02T11:33:04;11.20;1.00
40253;DHT22;25972;51.854;4.534;2024-03-02T11:35:37;11.30;1.00
40253;DHT22;25972;51.854;4.534;2024-03-02T11:38:04;11.30;1.00
40253;DHT22;25972;51.854;4.534;2024-03-02T11:40:30;11.40;1.00
40253;DHT22;25972;51.854;4.534;2024-03-02T11:42:57;11.30;1.00
40253;DHT22;25972;51.854;4.534;2024-03-02T11:45:25;11.40;1.00
40253;DHT22;25972;51.854;4.534;2024-03-02T11:47:54;11.50;1.00
40253;DHT22;25972;51.854;4.534;2024-03-02T11:52:58;11.60;1.00
40253;DHT22;25972;51.854;4.534;2024-03-02T11:55:26;11.70;1.00
40253;DHT22;25972;51.854;4.534;2024-03-02T11:57:55;11.80;1.00
40253;DHT22;25972;51.854;4.534;2024-03-02T12:00:20;11.70;1.00
40253;DHT22;25972;51.854;4.534;2024-03-02T12:02:47;11.90;1.00
40253;DHT22;25972;51.854;4.534;2024-03-02T12:05:25;12.00;1.00
40253;DHT22;25972;51.854;4.534;2024-03-02T12:07:59;12.00;1.00
40253;DHT22;25972;51.854;4.534;2024-03-02T12:10:26;12.00;1.00
40253;DHT22;25972;51.854;4.534;2024-03-02T12:15:29;11.80;1.00
40253;DHT22;25972;51.854;4.534;2024-03-02T12:17:56;11.80;1.00
40253;DHT22;25972;51.854;4.534;2024-03-02T12:20:23;11.90;1.00
40253;DHT22;25972;51.854;4.534;2024-03-02T12:23:00;11.80;1.00
40253;DHT22;25972;51.854;4.534;2024-03-02T12:25:26;11.80;1.00
40253;DHT22;25972;51.854;4.534;2024-03-02T12:27:59;11.90;1.00
40253;DHT22;25972;51.854;4.534;2024-03-02T12:30:30;11.90;1.00
40253;DHT22;25972;51.854;4.534;2024-03-02T12:32:56;12.00;1.00
40253;DHT22;25972;51.854;4.534;2024-03-02T12:35:24;12.00;1.00
40253;DHT22;25972;51.854;4.534;2024-03-02T12:37:53;12.00;1.00
40253;DHT22;25972;51.854;4.534;2024-03-02T12:40:20;11.90;1.00
40253;DHT22;25972;51.854;4.534;2024-03-02T12:42:48;11.80;1.00
40253;DHT22;25972;51.854;4.534;2024-03-02T12:45:15;11.80;1.00
40253;DHT22;25972;51.854;4.534;2024-03-02T12:47:42;11.80;1.00
40253;DHT22;25972;51.854;4.534;2024-03-02T12:50:09;11.80;1.00
40253;DHT22;25972;51.854;4.534;2024-03-02T12:52:34;11.80;1.00
40253;DHT22;25972;51.854;4.534;2024-03-02T12:55:02;11.90;1.00
40253;DHT22;25972;51.854;4.534;2024-03-02T12:57:30;11.90;1.00
40253;DHT22;25972;51.854;4.534;2024-03-02T13:00:06;11.90;1.00
40253;DHT22;25972;51.854;4.534;2024-03-02T13:02:36;11.90;1.00
40253;DHT22;25972;51.854;4.534;2024-03-02T13:05:02;12.00;1.00
40253;DHT22;25972;51.854;4.534;2024-03-02T13:07:29;12.00;1.00
40253;DHT22;25972;51.854;4.534;2024-03-02T13:09:55;12.10;1.00
40253;DHT22;25972;51.854;4.534;2024-03-02T13:12:23;12.20;1.00
40253;DHT22;25972;51.854;4.534;2024-03-02T13:14:52;12.20;1.00
40253;DHT22;25972;51.854;4.534;2024-03-02T13:17:19;12.30;1.00
40253;DHT22;25972;51.854;4.534;2024-03-02T13:19:52;12.30;1.00
40253;DHT22;25972;51.854;4.534;2024-03-02T13:22:18;12.30;1.00
40253;DHT22;25972;51.854;4.534;2024-03-02T13:24:44;12.30;1.00
40253;DHT22;25972;51.854;4.534;2024-03-02T13:27:10;12.20;1.00
40253;DHT22;25972;51.854;4.534;2024-03-02T13:29:36;12.30;1.00
40253;DHT22;25972;51.854;4.534;2024-03-02T13:32:02;12.30;1.00
40253;DHT22;25972;51.854;4.534;2024-03-02T13:34:28;12.40;1.00
40253;DHT22;25972;51.854;4.534;2024-03-02T13:36:54;12.50;1.00
40253;DHT22;25972;51.854;4.534;2024-03-02T13:39:20;12.40;1.00
40253;DHT22;25972;51.854;4.534;2024-03-02T13:41:45;12.50;1.00
40253;DHT22;25972;51.854;4.534;2024-03-02T13:44:21;12.50;1.00
40253;DHT22;25972;51.854;4.534;2024-03-02T13:46:47;12.50;1.00
40253;DHT22;25972;51.854;4.534;2024-03-02T13:49:14;12.40;1.00
40253;DHT22;25972;51.854;4.534;2024-03-02T13:51:39;12.30;1.00
40253;DHT22;25972;51.854;4.534;2024-03-02T13:54:05;12.40;1.00
40253;DHT22;25972;51.854;4.534;2024-03-02T13:56:31;12.30;1.00
40253;DHT22;25972;51.854;4.534;2024-03-02T13:58:58;12.40;1.00
40253;DHT22;25972;51.854;4.534;2024-03-02T14:01:24;12.40;1.00
40253;DHT22;25972;51.854;4.534;2024-03-02T14:03:50;12.40;1.00
40253;DHT22;25972;51.854;4.534;2024-03-02T14:06:16;12.40;1.00
40253;DHT22;25972;51.854;4.534;2024-03-02T14:08:41;12.40;1.00
40253;DHT22;25972;51.854;4.534;2024-03-02T14:11:10;12.30;1.00
40253;DHT22;25972;51.854;4.534;2024-03-02T14:13:41;12.20;1.00
40253;DHT22;25972;51.854;4.534;2024-03-02T14:16:06;12.20;1.00
40253;DHT22;25972;51.854;4.534;2024-03-02T14:18:32;12.30;1.00
40253;DHT22;25972;51.854;4.534;2024-03-02T14:20:58;12.30;1.00
40253;DHT22;25972;51.854;4.534;2024-03-02T14:23:24;12.40;1.00
40253;DHT22;25972;51.854;4.534;2024-03-02T14:25:51;12.30;1.00
40253;DHT22;25972;51.854;4.534;2024-03-02T14:28:17;12.40;1.00
40253;DHT22;25972;51.854;4.534;2024-03-02T14:30:44;12.50;1.00
40253;DHT22;25972;51.854;4.534;2024-03-02T14:33:10;12.50;1.00
40253;DHT22;25972;51.854;4.534;2024-03-02T14:35:36;12.60;1.00
40253;DHT22;25972;51.854;4.534;2024-03-02T14:38:03;12.60;1.00
40253;DHT22;25972;51.854;4.534;2024-03-02T14:40:29;12.60;1.00
40253;DHT22;25972;51.854;4.534;2024-03-02T14:42:55;12.70;1.00
40253;DHT22;25972;51.854;4.534;2024-03-02T14:45:20;12.60;1.00
40253;DHT22;25972;51.854;4.534;2024-03-02T14:47:46;12.60;1.00
40253;DHT22;25972;51.854;4.534;2024-03-02T14:50:12;12.60;1.00
40253;DHT22;25972;51.854;4.534;2024-03-02T14:52:38;12.50;1.00
40253;DHT22;25972;51.854;4.534;2024-03-02T14:55:04;12.50;1.00
40253;DHT22;25972;51.854;4.534;2024-03-02T14:57:33;12.40;1.00
40253;DHT22;25972;51.854;4.534;2024-03-02T14:59:58;12.40;1.00
40253;DHT22;25972;51.854;4.534;2024-03-02T15:02:24;12.40;1.00
40253;DHT22;25972;51.854;4.534;2024-03-02T15:04:50;12.30;1.00
40253;DHT22;25972;51.854;4.534;2024-03-02T15:07:16;12.40;1.00
40253;DHT22;25972;51.854;4.534;2024-03-02T15:09:42;12.40;1.00
40253;DHT22;25972;51.854;4.534;2024-03-02T15:12:08;12.40;1.00
40253;DHT22;25972;51.854;4.534;2024-03-02T15:14:38;12.40;1.00
40253;DHT22;25972;51.854;4.534;2024-03-02T15:17:14;12.30;1.00
40253;DHT22;25972;51.854;4.534;2024-03-02T15:19:42;12.30;1.00
40253;DHT22;25972;51.854;4.534;2024-03-02T15:22:08;12.30;1.00
40253;DHT22;25972;51.854;4.534;2024-03-02T15:24:34;12.30;1.00
40253;DHT22;25972;51.854;4.534;2024-03-02T15:27:00;12.30;1.00
40253;DHT22;25972;51.854;4.534;2024-03-02T15:29:29;12.40;1.00
40253;DHT22;25972;51.854;4.534;2024-03-02T15:31:57;12.40;1.00
40253;DHT22;25972;51.854;4.534;2024-03-02T15:34:22;12.40;1.00
40253;DHT22;25972;51.854;4.534;2024-03-02T15:36:49;12.40;1.00
40253;DHT22;25972;51.854;4.534;2024-03-02T15:39:15;12.40;1.00
40253;DHT22;25972;51.854;4.534;2024-03-02T15:41:41;12.30;1.00
40253;DHT22;25972;51.854;4.534;2024-03-02T15:44:08;12.30;1.00
40253;DHT22;25972;51.854;4.534;2024-03-02T15:46:34;12.20;1.00
40253;DHT22;25972;51.854;4.534;2024-03-02T15:49:00;12.20;1.00
40253;DHT22;25972;51.854;4.534;2024-03-02T15:51:26;12.20;1.00
40253;DHT22;25972;51.854;4.534;2024-03-02T15:53:52;12.20;1.00
40253;DHT22;25972;51.854;4.534;2024-03-02T15:56:18;12.10;1.00
40253;DHT22;25972;51.854;4.534;2024-03-02T15:58:45;12.10;1.00
40253;DHT22;25972;51.854;4.534;2024-03-02T16:01:11;12.10;1.00